Time;durP1;ratioP1;P1;durP2;ratioP2;P2;SDS_P1;SDS_P2;PMS_P1;PMS_P2;Temp;Humidity;BMP_temperature;BMP_pressure;BME280_temperature;BME280_humidity;BME280_pressure;Samples;Min_cycle;Max_cycle;Signal;HPM_P1;HPM_P2
2021/04/20 00:02:23;;;;;;;11.97;8.05;;;;;;;13.53;56.63;99873.92;1760128;81;21186;-67
2021/04/20 00:04:52;;;;;;;9.75;8.33;;;;;;;13.47;56.61;99871.48;1760400;80;21127;-68
2021/04/20 00:07:20;;;;;;;9.63;7.85;;;;;;;13.43;56.75;99865.03;1761797;81;21309;-68
2021/04/20 00:09:48;;;;;;;11.25;8.48;;;;;;;13.42;56.68;99861.51;1761479;81;21332;-53
2021/04/20 00:12:16;;;;;;;11.10;8.78;;;;;;;13.43;56.75;99864.56;1760982;81;21558;-52
2021/04/20 00:14:44;;;;;;;9.58;8.08;;;;;;;13.37;56.79;99866.04;1761194;80;21166;-53
2021/04/20 00:17:12;;;;;;;8.63;7.65;;;;;;;13.33;56.87;99868.37;1761328;81;21194;-68
2021/04/20 00:19:40;;;;;;;10.18;8.03;;;;;;;13.32;56.97;99863.55;1761702;80;21154;-68
2021/04/20 00:22:09;;;;;;;9.80;8.65;;;;;;;13.31;56.93;99859.19;1760455;81;21614;-68
2021/04/20 00:24:37;;;;;;;10.35;8.38;;;;;;;13.30;57.03;99852.61;1761604;81;21645;-68
2021/04/20 00:27:06;;;;;;;10.58;8.95;;;;;;;13.27;57.10;99848.30;1761419;81;21110;-52
2021/04/20 00:29:34;;;;;;;11.30;9.15;;;;;;;13.24;57.12;99845.75;1761596;80;21170;-68
2021/04/20 00:32:03;;;;;;;12.05;9.95;;;;;;;13.22;57.13;99840.97;1760494;81;21114;-53
2021/04/20 00:34:31;;;;;;;11.35;8.83;;;;;;;13.19;57.27;99841.06;1761368;80;21170;-52
2021/04/20 00:36:59;;;;;;;10.88;9.10;;;;;;;13.18;57.13;99841.54;1761487;81;21147;-52
2021/04/20 00:39:27;;;;;;;10.08;8.73;;;;;;;13.07;57.30;99836.56;1761040;81;21147;-68
2021/04/20 00:42:02;;;;;;;10.93;8.93;;;;;;;13.03;57.46;99831.45;1761492;81;21602;-69
2021/04/20 00:44:31;;;;;;;11.40;9.75;;;;;;;12.97;57.64;99825.91;1761695;80;21196;-53
2021/04/20 00:47:00;;;;;;;11.57;8.93;;;;;;;12.93;57.69;99830.88;1761594;81;21150;-53
2021/04/20 00:49:28;;;;;;;11.38;9.75;;;;;;;12.91;57.75;99826.09;1760981;81;21558;-67
2021/04/20 00:51:55;;;;;;;12.00;8.95;;;;;;;12.86;57.92;99822.25;1761402;81;21171;-68
2021/04/20 00:54:25;;;;;;;10.65;9.35;;;;;;;12.82;57.99;99820.61;1761469;80;21166;-52
2021/04/20 00:56:53;;;;;;;12.78;9.53;;;;;;;12.78;58.09;99812.41;1761594;81;21194;-51
2021/04/20 00:59:21;;;;;;;11.78;9.25;;;;;;;12.79;58.17;99812.81;1760801;80;21131;-67
2021/04/20 01:01:48;;;;;;;13.13;10.35;;;;;;;12.77;58.25;99810.67;1761371;81;21147;-51
2021/04/20 01:04:18;;;;;;;11.20;9.18;;;;;;;12.75;58.35;99808.06;1761369;80;21123;-67
2021/04/20 01:06:48;;;;;;;11.53;9.23;;;;;;;12.73;58.40;99800.64;1760717;81;21142;-51
2021/04/20 01:09:18;;;;;;;12.25;10.08;;;;;;;12.73;58.37;99799.80;1761461;80;21172;-51
2021/04/20 01:11:46;;;;;;;11.15;9.10;;;;;;;12.73;58.42;99796.69;1761411;81;21190;-52
2021/04/20 01:14:13;;;;;;;11.93;9.70;;;;;;;12.70;58.52;99793.28;1761643;81;21569;-52
2021/04/20 01:16:41;;;;;;;12.00;9.65;;;;;;;12.67;58.57;99795.55;1760768;81;21131;-67
2021/04/20 01:19:13;;;;;;;12.10;10.08;;;;;;;12.67;58.66;99789.41;1761397;80;21176;-51
2021/04/20 01:21:40;;;;;;;12.82;9.30;;;;;;;12.67;58.67;99791.58;1745222;81;21332;-51
2021/04/20 01:24:14;;;;;;;11.57;10.30;;;;;;;12.66;58.67;99790.33;1761319;80;21187;-67
2021/04/20 01:26:46;;;;;;;11.65;9.80;;;;;;;12.66;58.70;99791.64;1760756;81;21146;-68
2021/04/20 01:29:14;;;;;;;11.97;10.38;;;;;;;12.66;58.77;99784.58;1761693;80;21175;-67
2021/04/20 01:31:44;;;;;;;12.93;10.30;;;;;;;12.68;58.79;99789.36;1761912;81;21127;-67
2021/04/20 01:34:13;;;;;;;12.05;9.73;;;;;;;12.69;58.81;99787.13;1761160;81;21150;-52
2021/04/20 01:36:41;;;;;;;12.45;9.63;;;;;;;12.72;58.78;99783.07;1761493;81;21571;-67
2021/04/20 01:39:11;;;;;;;12.20;10.32;;;;;;;12.72;58.71;99774.30;1762011;80;21184;-52
2021/04/20 01:41:39;;;;;;;;;;;;;;;12.71;58.76;99776.06;1764139;81;21324;-67
2021/04/20 01:44:07;;;;;;;13.93;10.08;;;;;;;12.68;58.77;99773.52;1750884;81;20168;-67
2021/04/20 01:46:35;;;;;;;13.83;9.85;;;;;;;12.65;58.83;99773.60;1731594;83;21213;-66
2021/04/20 01:49:03;;;;;;;9.58;8.58;;;;;;;12.64;58.94;99768.80;1696358;83;21189;-59
2021/04/20 01:51:31;;;;;;;11.65;10.13;;;;;;;12.66;58.96;99761.28;1712904;83;21130;-67
2021/04/20 01:53:59;;;;;;;11.30;9.88;;;;;;;12.65;58.97;99761.72;1706589;83;21201;-67
2021/04/20 01:56:27;;;;;;;13.80;10.40;;;;;;;12.64;59.03;99759.99;1707126;84;21330;-67
2021/04/20 01:58:55;;;;;;;12.07;9.80;;;;;;;12.63;59.05;99758.27;1707233;83;21332;-51
2021/04/20 02:01:25;;;;;;;12.82;10.25;;;;;;;12.61;59.07;99756.13;1703189;84;21287;-52
2021/04/20 02:03:53;;;;;;;13.85;9.58;;;;;;;12.60;59.12;99753.08;1681273;84;21675;-52
2021/04/20 02:06:23;;;;;;;11.70;9.40;;;;;;;12.56;59.18;99749.68;1673923;85;21347;-68
2021/04/20 02:08:51;;;;;;;12.23;9.45;;;;;;;12.52;59.28;99750.68;1659472;85;21728;-53
2021/04/20 02:11:21;;;;;;;12.95;10.65;;;;;;;12.49;59.34;99744.17;1695516;84;21590;-53
2021/04/20 02:13:49;;;;;;;11.35;9.70;;;;;;;12.46;59.41;99742.51;1756198;80;21285;-53
2021/04/20 02:16:17;;;;;;;11.12;9.68;;;;;;;12.44;59.47;99743.45;1756110;82;21173;-52
2021/04/20 02:18:47;;;;;;;11.90;10.08;;;;;;;12.41;59.53;99740.45;1755953;81;21301;-52
2021/04/20 02:21:17;;;;;;;13.28;10.25;;;;;;;12.40;59.57;99736.53;1755529;82;21174;-53
2021/04/20 02:23:46;;;;;;;10.17;9.10;;;;;;;12.39;59.63;99732.16;1736095;81;21300;-52
2021/04/20 02:26:21;;;;;;;12.98;9.95;;;;;;;12.41;59.61;99731.22;1758933;81;21197;-68
2021/04/20 02:28:49;;;;;;;12.78;9.70;;;;;;;12.34;59.82;99730.98;1753150;81;21158;-53
2021/04/20 02:31:17;;;;;;;12.68;9.80;;;;;;;13.33;57.14;99725.65;1707895;83;21183;-53
2021/04/20 02:33:45;;;;;;;11.20;9.95;;;;;;;12.42;59.41;99725.03;1736717;80;21212;-68
2021/04/20 02:36:13;;;;;;;13.32;10.72;;;;;;;12.54;59.07;99726.42;1756157;82;21182;-53
2021/04/20 02:38:41;;;;;;;14.30;11.70;;;;;;;13.42;56.83;99716.59;1754974;80;21346;-52
2021/04/20 02:41:10;;;;;;;11.50;9.73;;;;;;;12.71;58.25;99716.65;1737707;82;21162;-67
2021/04/20 02:43:38;;;;;;;11.90;9.08;;;;;;;12.38;59.24;99710.64;1756190;81;21163;-51
2021/04/20 02:46:06;;;;;;;13.72;10.60;;;;;;;12.30;59.51;99718.80;1756154;82;21183;-66
2021/04/20 02:48:34;;;;;;;12.73;10.35;;;;;;;12.24;59.66;99715.02;1755500;80;21143;-51
2021/04/20 02:51:04;;;;;;;14.60;10.88;;;;;;;12.20;59.90;99713.78;1737402;82;21166;-67
2021/04/20 02:53:32;;;;;;;12.35;9.98;;;;;;;12.18;59.98;99710.33;1756278;82;21130;-52
2021/04/20 02:55:59;;;;;;;14.35;9.73;;;;;;;12.15;60.07;99708.25;1756162;82;21167;-52
2021/04/20 02:58:28;;;;;;;12.50;10.53;;;;;;;12.10;60.08;99706.20;1755891;80;21599;-66
2021/04/20 03:01:06;;;;;;;12.82;10.13;;;;;;;12.09;60.22;99704.03;1756268;82;21542;-54
2021/04/20 03:03:37;;;;;;;12.47;10.28;;;;;;;12.05;60.30;99699.75;1756107;82;21135;-67
2021/04/20 03:06:05;;;;;;;13.15;10.43;;;;;;;12.02;60.39;99695.41;1736714;82;21127;-52
2021/04/20 03:08:33;;;;;;;12.90;10.15;;;;;;;12.00;60.41;99700.34;1756114;80;21301;-50
2021/04/20 03:11:04;;;;;;;11.60;9.65;;;;;;;11.93;60.62;99701.39;1756046;81;21668;-51
2021/04/20 03:13:33;;;;;;;12.93;9.95;;;;;;;11.89;60.76;99701.94;1756126;81;21153;-68
2021/04/20 03:16:06;;;;;;;13.60;10.15;;;;;;;11.93;60.71;99704.88;1755371;82;21158;-66
2021/04/20 03:18:34;;;;;;;12.30;10.05;;;;;;;11.96;60.69;99704.78;1720223;83;21195;-67
2021/04/20 03:21:05;;;;;;;12.03;10.05;;;;;;;11.96;60.60;99705.26;1756103;81;21249;-51
2021/04/20 03:23:33;;;;;;;11.90;9.05;;;;;;;12.03;60.46;99703.73;1755659;82;21177;-67
2021/04/20 03:26:04;;;;;;;12.23;9.23;;;;;;;12.00;60.50;99704.30;1736302;82;21586;-68
2021/04/20 03:28:32;;;;;;;12.78;10.50;;;;;;;11.92;60.59;99700.97;1755487;82;21257;-68
2021/04/20 03:31:00;;;;;;;12.37;9.88;;;;;;;11.88;60.74;99697.11;1756006;82;21127;-67
2021/04/20 03:33:31;;;;;;;10.65;8.40;;;;;;;11.86;60.79;99697.60;1705995;83;21539;-52
2021/04/20 03:36:07;;;;;;;11.60;8.45;;;;;;;11.86;60.72;99698.92;1756158;82;21269;-52
2021/04/20 03:39:04;;;;;;;11.03;8.80;;;;;;;11.92;60.54;99697.02;1756248;82;21582;-53
2021/04/20 03:41:57;;;;;;;11.95;8.88;;;;;;;11.90;60.60;99699.25;1756247;82;21559;-53
2021/04/20 03:44:45;;;;;;;19.75;8.60;;;;;;;11.94;60.48;99696.05;1756399;81;21204;-52
2021/04/20 03:47:19;;;;;;;14.60;8.40;;;;;;;12.16;60.36;99696.31;1756117;82;21151;-52
2021/04/20 03:49:49;;;;;;;13.22;8.43;;;;;;;12.80;58.77;99694.39;1720001;83;21118;-67
2021/04/20 03:52:32;;;;;;;14.87;7.83;;;;;;;13.18;57.50;99690.05;1755173;82;21151;-53
2021/04/20 03:54:59;;;;;;;10.82;7.12;;;;;;;13.28;57.20;99694.11;1756187;80;21249;-68
2021/04/20 03:57:30;;;;;;;11.85;8.00;;;;;;;13.36;56.54;99689.42;1755884;81;21131;-52
2021/04/20 03:59:58;;;;;;;10.40;7.30;;;;;;;13.42;56.54;99693.66;1691918;83;21282;-52
2021/04/20 04:02:27;;;;;;;13.72;8.08;;;;;;;13.45;56.23;99690.91;1757418;81;21130;-67
2021/04/20 04:04:55;;;;;;;14.38;8.68;;;;;;;13.46;56.16;99688.67;1761386;80;21118;-53
2021/04/20 04:07:23;;;;;;;12.45;8.68;;;;;;;13.50;56.16;99690.73;1761383;81;21574;-67
2021/04/20 04:09:50;;;;;;;11.97;8.60;;;;;;;13.49;55.96;99681.07;1758684;81;21200;-68
2021/04/20 04:12:18;;;;;;;13.38;8.13;;;;;;;13.48;55.72;99679.34;1761476;81;21119;-60
2021/04/20 04:14:47;;;;;;;11.25;8.13;;;;;;;13.46;55.69;99676.77;1741916;81;21586;-53
2021/04/20 04:17:16;;;;;;;14.60;8.45;;;;;;;13.45;55.71;99678.16;1761440;81;21194;-68
2021/04/20 04:19:49;;;;;;;12.95;8.03;;;;;;;13.45;55.68;99678.16;1760778;81;21504;-68
2021/04/20 04:22:27;;;;;;;15.98;7.80;;;;;;;13.46;55.54;99677.25;1761296;81;21143;-53
2021/04/20 04:24:57;;;;;;;10.43;7.80;;;;;;;13.45;55.48;99683.45;1761353;81;21191;-53
2021/04/20 04:27:28;;;;;;;11.93;7.85;;;;;;;13.45;55.41;99677.69;1760337;81;21162;-53
2021/04/20 04:30:03;;;;;;;10.70;7.17;;;;;;;13.48;55.55;99676.70;1761724;80;21172;-54
2021/04/20 04:32:31;;;;;;;10.03;7.20;;;;;;;13.53;55.61;99673.44;1761691;81;21202;-67
2021/04/20 04:34:59;;;;;;;9.93;7.72;;;;;;;13.56;55.50;99677.30;1744951;81;21167;-67
2021/04/20 04:37:26;;;;;;;9.83;7.87;;;;;;;13.58;55.77;99671.97;1714730;83;21586;-58
2021/04/20 04:39:57;;;;;;;11.83;8.48;;;;;;;13.62;55.81;99678.88;1731650;81;21220;-54
2021/04/20 04:42:24;;;;;;;12.20;7.83;;;;;;;13.64;55.73;99671.28;1731472;82;21605;-53
2021/04/20 04:44:52;;;;;;;9.48;7.42;;;;;;;13.65;55.59;99678.30;1715026;82;21127;-67
2021/04/20 04:47:19;;;;;;;9.48;8.00;;;;;;;13.65;55.50;99669.03;1753401;81;21170;-67
2021/04/20 04:49:47;;;;;;;11.40;8.35;;;;;;;13.66;55.45;99669.44;1761490;80;21119;-50
2021/04/20 04:52:18;;;;;;;11.20;8.28;;;;;;;13.65;55.33;99672.16;1761539;81;21155;-50
2021/04/20 04:54:46;;;;;;;17.37;9.78;;;;;;;13.68;55.26;99670.25;1744197;81;21302;-67
2021/04/20 04:57:13;;;;;;;11.20;7.92;;;;;;;13.74;55.23;99674.91;1761366;81;21111;-52
2021/04/20 04:59:41;;;;;;;10.03;7.70;;;;;;;13.75;55.21;99673.52;1744715;81;21131;-52
2021/04/20 05:02:10;;;;;;;10.35;8.15;;;;;;;13.74;54.95;99674.91;1743862;81;21146;-53
2021/04/20 05:04:38;;;;;;;13.38;8.75;;;;;;;13.72;54.99;99676.27;1708177;82;21214;-53
2021/04/20 05:07:07;;;;;;;10.53;7.87;;;;;;;13.71;55.05;99681.64;1748124;82;21317;-53
2021/04/20 05:09:36;;;;;;;10.28;7.15;;;;;;;13.72;55.03;99680.23;1748069;81;21132;-67
2021/04/20 05:12:06;;;;;;;10.08;7.80;;;;;;;13.88;54.54;99677.92;1748214;82;21167;-67
2021/04/20 05:14:33;;;;;;;11.50;8.53;;;;;;;13.93;54.30;99671.97;1747566;81;21639;-67
2021/04/20 05:17:01;;;;;;;9.65;7.87;;;;;;;13.96;54.24;99670.53;1748079;82;21199;-67
2021/04/20 05:19:33;;;;;;;11.40;7.87;;;;;;;14.00;54.31;99675.71;1747967;81;21274;-52
2021/04/20 05:22:01;;;;;;;12.25;7.95;;;;;;;14.04;54.44;99676.00;1748268;82;21155;-52
2021/04/20 05:24:29;;;;;;;10.28;7.85;;;;;;;14.06;54.50;99682.98;1747695;81;21138;-67
2021/04/20 05:26:57;;;;;;;9.50;7.53;;;;;;;14.06;54.59;99677.69;1748000;82;21147;-53
2021/04/20 05:29:25;;;;;;;9.45;8.13;;;;;;;14.07;54.80;99682.06;1748035;82;21144;-53
2021/04/20 05:31:53;;;;;;;10.70;8.03;;;;;;;14.11;54.85;99678.82;1747384;82;21183;-67
2021/04/20 05:34:21;;;;;;;10.32;8.43;;;;;;;14.11;55.00;99679.70;1748043;81;21171;-53
2021/04/20 05:36:49;;;;;;;11.93;9.28;;;;;;;14.12;55.09;99687.16;1748155;82;21497;-53
2021/04/20 05:39:17;;;;;;;11.15;8.75;;;;;;;14.14;55.26;99685.32;1718281;82;21293;-62
2021/04/20 05:41:45;;;;;;;11.28;8.18;;;;;;;14.13;55.46;99687.56;1741603;82;21143;-53
2021/04/20 05:44:31;;;;;;;10.90;8.70;;;;;;;14.12;55.54;99684.52;1748174;81;21596;-65
2021/04/20 05:47:04;;;;;;;13.50;9.73;;;;;;;14.14;55.64;99687.97;1748178;82;21186;-66
2021/04/20 05:49:32;;;;;;;12.28;9.25;;;;;;;14.13;55.71;99686.24;1747355;82;21184;-53
2021/04/20 05:51:59;;;;;;;11.40;9.13;;;;;;;14.12;55.71;99688.05;1748149;82;21171;-53
2021/04/20 05:54:28;;;;;;;12.13;10.05;;;;;;;14.14;55.91;99682.67;1748106;81;21167;-53
2021/04/20 05:56:55;;;;;;;11.68;8.95;;;;;;;14.17;56.21;99683.00;1747880;82;21167;-65
2021/04/20 05:59:23;;;;;;;12.55;9.83;;;;;;;14.20;56.43;99686.86;1747453;82;21608;-66
2021/04/20 06:01:50;;;;;;;12.58;9.88;;;;;;;14.22;56.26;99687.66;1737666;82;21641;-66
2021/04/20 06:04:18;;;;;;;881.80;575.35;;;;;;;14.24;56.30;99690.67;1759289;80;21143;-66
2021/04/20 06:06:46;;;;;;;158.93;83.40;;;;;;;14.27;58.36;99694.97;1744250;81;21558;-53
2021/04/20 06:09:13;;;;;;;81.90;42.53;;;;;;;14.50;58.20;99694.08;1760416;80;21606;-54
2021/04/20 06:11:42;;;;;;;44.25;25.75;;;;;;;14.57;58.09;99694.71;1761379;81;21119;-53
2021/04/20 06:14:11;;;;;;;27.95;16.50;;;;;;;14.66;57.96;99690.83;1720593;81;21531;-53
2021/04/20 06:16:39;;;;;;;17.27;13.45;;;;;;;14.73;57.38;99693.66;1760200;80;21168;-65
2021/04/20 06:19:07;;;;;;;17.57;13.18;;;;;;;14.78;57.06;99692.14;1761608;80;21695;-66
2021/04/20 06:21:35;;;;;;;19.32;13.83;;;;;;;14.79;57.01;99693.86;1761599;81;21155;-65
2021/04/20 06:24:05;;;;;;;14.05;11.83;;;;;;;14.79;56.97;99693.86;1761494;81;21123;-53
2021/04/20 06:26:36;;;;;;;20.45;12.80;;;;;;;14.76;56.79;99696.19;1743745;81;21265;-53
2021/04/20 06:29:04;;;;;;;15.35;12.07;;;;;;;14.75;56.78;99693.14;1761485;80;21119;-64
2021/04/20 06:31:34;;;;;;;18.02;12.47;;;;;;;14.76;56.71;99693.98;1744697;81;21155;-64
2021/04/20 06:34:02;;;;;;;16.27;12.98;;;;;;;14.75;56.92;99690.94;1759840;80;21134;-65
2021/04/20 06:36:30;;;;;;;16.57;11.93;;;;;;;14.78;57.08;99692.14;1761721;81;21558;-53
2021/04/20 06:38:58;;;;;;;16.20;12.88;;;;;;;14.81;56.77;99702.13;1744766;81;21150;-64
2021/04/20 06:41:28;;;;;;;15.65;12.53;;;;;;;14.78;56.49;99702.29;1761777;81;21119;-53
2021/04/20 06:44:04;;;;;;;19.37;12.50;;;;;;;14.74;56.77;99702.45;1741560;81;21170;-64
2021/04/20 06:46:52;;;;;;;16.00;12.20;;;;;;;14.78;56.80;99697.44;1731750;83;21139;-53
2021/04/20 06:49:32;;;;;;;15.45;11.80;;;;;;;14.75;56.80;99698.88;1746975;80;21103;-65
2021/04/20 06:52:05;;;;;;;17.20;13.20;;;;;;;14.77;56.86;99697.03;1729898;81;21704;-53
2021/04/20 06:54:35;;;;;;;14.93;11.95;;;;;;;14.78;56.78;99696.11;1731423;81;21321;-53
2021/04/20 06:57:17;;;;;;;17.17;13.22;;;;;;;14.81;56.92;99698.16;1734587;81;21142;-65
2021/04/20 07:00:03;;;;;;;16.87;12.58;;;;;;;14.82;56.95;99699.04;1722078;81;21182;-65
2021/04/20 07:03:02;;;;;;;16.37;12.82;;;;;;;14.88;57.12;99690.84;1735975;81;21359;-65
2021/04/20 07:06:01;;;;;;;17.50;12.75;;;;;;;14.91;57.14;99688.07;1761569;80;21167;-65
2021/04/20 07:08:57;;;;;;;17.70;13.25;;;;;;;14.93;57.16;99687.55;1761620;80;21167;-66
2021/04/20 07:11:28;;;;;;;15.83;13.25;;;;;;;14.98;57.38;99689.98;1751253;81;21349;-66
2021/04/20 07:13:59;;;;;;;14.25;12.53;;;;;;;15.02;57.03;99689.78;1761632;80;21200;-54
2021/04/20 07:16:47;;;;;;;17.75;13.85;;;;;;;15.04;57.09;99684.88;1744662;81;21170;-54
2021/04/20 07:19:32;;;;;;;17.00;13.48;;;;;;;15.07;57.08;99690.06;1760090;80;21139;-53
2021/04/20 07:22:22;;;;;;;16.60;13.50;;;;;;;15.14;57.24;99683.13;1762098;81;21121;-64
2021/04/20 07:25:36;;;;;;;16.75;13.70;;;;;;;15.25;57.41;99676.48;1825283;77;22173;-52
2021/04/20 07:28:34;;;;;;;16.80;13.98;;;;;;;15.28;57.36;99680.33;1768452;80;21137;-53
2021/04/20 07:31:45;;;;;;;17.10;13.60;;;;;;;15.37;57.18;99683.92;1793030;80;21170;-64
2021/04/20 07:34:52;;;;;;;16.32;13.83;;;;;;;15.41;57.45;99679.36;1768259;79;21245;-65
2021/04/20 07:37:58;;;;;;;19.90;14.53;;;;;;;15.51;57.26;99680.66;1766765;80;21606;-64
2021/04/20 07:40:40;;;;;;;20.40;15.50;;;;;;;15.61;57.20;99680.66;1681633;83;21170;-64
2021/04/20 07:43:22;;;;;;;19.42;14.43;;;;;;;15.76;57.53;99678.26;1726032;81;21181;-63
2021/04/20 07:46:10;;;;;;;20.17;16.60;;;;;;;15.89;57.25;99675.94;1729796;81;21131;-53
2021/04/20 07:48:58;;;;;;;21.97;16.57;;;;;;;15.97;57.11;99672.47;1758009;81;21151;-53
2021/04/20 07:51:38;;;;;;;22.15;17.25;;;;;;;16.09;56.54;99668.86;1729686;83;21550;-53
2021/04/20 07:54:17;;;;;;;20.20;17.17;;;;;;;16.16;56.02;99671.59;1741506;81;21184;-64
2021/04/20 07:57:04;;;;;;;20.57;17.02;;;;;;;16.18;55.93;99674.59;1756718;81;21130;-54
2021/04/20 07:59:56;;;;;;;29.12;20.70;;;;;;;16.24;56.00;99670.77;1729351;83;21291;-54
2021/04/20 08:03:08;;;;;;;21.75;17.95;;;;;;;16.34;56.25;99673.84;1707919;82;21285;-64
2021/04/20 08:05:49;;;;;;;22.55;17.87;;;;;;;16.43;55.57;99661.94;1738874;80;21127;-65
2021/04/20 08:08:44;;;;;;;21.42;17.80;;;;;;;16.46;55.30;99665.30;1741692;82;21159;-54
2021/04/20 08:11:25;;;;;;;21.30;16.80;;;;;;;16.52;55.00;99669.92;1731121;81;21177;-63
2021/04/20 08:14:01;;;;;;;21.10;16.57;;;;;;;16.57;55.00;99661.27;1724865;82;21185;-53
2021/04/20 08:16:34;;;;;;;21.60;17.70;;;;;;;16.60;55.26;99664.63;1751046;82;21277;-53
2021/04/20 08:19:27;;;;;;;19.00;15.88;;;;;;;16.73;55.12;99665.36;1719651;82;21161;-64
2021/04/20 08:21:55;;;;;;;21.68;17.17;;;;;;;16.75;55.13;99666.14;1731620;83;21178;-53
2021/04/20 08:24:30;;;;;;;21.02;18.05;;;;;;;16.86;54.87;99666.48;1667360;85;21575;-64
2021/04/20 08:27:33;;;;;;;21.45;18.07;;;;;;;16.92;54.79;99670.62;1748789;82;21170;-53
2021/04/20 08:30:15;;;;;;;21.62;17.40;;;;;;;16.95;54.03;99663.82;1766415;79;21126;-65
2021/04/20 08:32:46;;;;;;;20.85;17.17;;;;;;;17.04;53.95;99666.50;1758107;80;21582;-53
2021/04/20 08:35:26;;;;;;;20.80;16.17;;;;;;;17.05;54.30;99671.77;1779591;80;21292;-65
2021/04/20 08:38:23;;;;;;;19.87;17.62;;;;;;;17.14;53.89;99666.44;1763215;81;21132;-66
2021/04/20 08:41:10;;;;;;;21.23;16.57;;;;;;;17.17;53.76;99670.75;1747925;82;21326;-53
2021/04/20 08:44:06;;;;;;;19.35;16.67;;;;;;;17.23;53.42;99667.30;1748268;82;21539;-53
2021/04/20 08:47:14;;;;;;;19.45;16.48;;;;;;;17.30;53.13;99665.17;1748226;82;21179;-53
2021/04/20 08:49:52;;;;;;;18.07;15.28;;;;;;;17.41;52.60;99663.77;1774807;80;21128;-66
2021/04/20 08:53:09;;;;;;;18.70;16.05;;;;;;;17.42;52.32;99669.02;1778918;81;21701;-66
2021/04/20 08:56:12;;;;;;;19.32;16.17;;;;;;;17.46;52.29;99667.89;1776767;81;21139;-53
2021/04/20 08:58:58;;;;;;;18.30;14.80;;;;;;;17.51;51.67;99668.52;1748414;81;21511;-64
2021/04/20 09:01:50;;;;;;;17.85;15.30;;;;;;;17.61;51.62;99670.70;1746427;81;21274;-66
2021/04/20 09:04:32;;;;;;;17.07;14.05;;;;;;;17.68;51.18;99664.11;1774645;81;21143;-52
2021/04/20 09:07:06;;;;;;;19.27;14.80;;;;;;;17.77;51.22;99670.73;1778113;81;21272;-54
2021/04/20 09:09:34;;;;;;;16.87;14.15;;;;;;;17.83;50.76;99671.73;1778535;80;21147;-67
2021/04/20 09:12:05;;;;;;;17.65;15.08;;;;;;;17.82;49.42;99670.89;1778736;80;21585;-66
2021/04/20 09:14:39;;;;;;;16.23;13.70;;;;;;;17.79;49.49;99676.38;1728321;82;21124;-67
2021/04/20 09:17:17;;;;;;;18.07;14.87;;;;;;;17.78;49.45;99673.78;1766271;81;21146;-66
2021/04/20 09:19:54;;;;;;;18.27;14.30;;;;;;;17.79;49.09;99675.50;1779028;81;21135;-66
2021/04/20 09:23:03;;;;;;;17.67;13.72;;;;;;;17.76;49.15;99675.66;1779043;81;21135;-54
2021/04/20 09:25:41;;;;;;;16.57;13.78;;;;;;;17.72;48.77;99674.98;1763301;80;21143;-54
2021/04/20 09:28:16;;;;;;;16.90;12.68;;;;;;;17.74;49.02;99679.75;1743804;81;21147;-66
2021/04/20 09:30:56;;;;;;;16.75;13.83;;;;;;;17.78;48.36;99678.66;1718243;82;21115;-66
2021/04/20 09:33:48;;;;;;;16.27;12.68;;;;;;;17.86;48.83;99684.04;1762225;81;21587;-54
2021/04/20 09:36:17;;;;;;;14.95;12.03;;;;;;;17.95;48.78;99675.53;1739741;82;21613;-66
2021/04/20 09:38:49;;;;;;;15.70;12.78;;;;;;;18.05;48.70;99675.45;1739376;82;21137;-54
2021/04/20 09:41:20;;;;;;;17.17;12.65;;;;;;;18.16;48.59;99677.52;1739402;82;21145;-54
2021/04/20 09:44:15;;;;;;;14.95;12.50;;;;;;;18.30;47.73;99672.78;1744206;81;21650;-54
2021/04/20 09:47:10;;;;;;;13.58;11.68;;;;;;;18.42;47.72;99671.23;1778826;80;21144;-67
2021/04/20 09:49:53;;;;;;;15.40;12.45;;;;;;;18.52;47.21;99671.56;1768698;81;21296;-54
2021/04/20 09:52:22;;;;;;;16.27;13.32;;;;;;;18.60;46.30;99668.45;1739622;82;21283;-54
2021/04/20 09:55:04;;;;;;;16.73;13.20;;;;;;;18.68;45.88;99675.08;1739856;82;21181;-54
2021/04/20 09:57:35;;;;;;;16.55;14.65;;;;;;;18.69;45.01;99665.27;1742639;80;21563;-54
2021/04/20 10:00:08;;;;;;;16.50;13.22;;;;;;;18.65;45.14;99667.72;1755393;81;21135;-66
2021/04/20 10:03:00;;;;;;;14.53;12.33;;;;;;;18.61;45.33;99664.38;1779076;81;21646;-66
2021/04/20 10:05:50;;;;;;;15.55;12.80;;;;;;;18.60;44.83;99663.99;1774054;81;21154;-53
2021/04/20 10:09:00;;;;;;;14.50;11.83;;;;;;;18.57;44.47;99666.34;1747420;81;21145;-53
2021/04/20 10:11:42;;;;;;;14.65;11.57;;;;;;;18.51;44.37;99670.72;1739634;82;21173;-54
2021/04/20 10:14:31;;;;;;;16.05;11.68;;;;;;;18.45;44.82;99673.73;1739641;81;21180;-54
2021/04/20 10:17:24;;;;;;;13.22;11.33;;;;;;;18.44;44.92;99666.68;1740003;82;21153;-54
2021/04/20 10:20:20;;;;;;;14.83;12.53;;;;;;;18.48;45.23;99672.22;1763472;81;21511;-54
2021/04/20 10:23:08;;;;;;;15.63;12.47;;;;;;;18.51;44.80;99672.51;1778980;80;21115;-53
2021/04/20 10:25:50;;;;;;;17.75;12.93;;;;;;;18.53;44.24;99670.62;1734121;80;21129;-65
2021/04/20 10:28:36;;;;;;;17.00;12.30;;;;;;;18.60;44.57;99674.66;1747548;82;21163;-54
2021/04/20 10:31:23;;;;;;;15.10;11.85;;;;;;;18.71;44.86;99680.23;1747069;82;21610;-53
2021/04/20 10:33:51;;;;;;;15.28;11.68;;;;;;;18.79;44.12;99680.24;1747403;82;21151;-65
2021/04/20 10:36:24;;;;;;;14.45;11.25;;;;;;;18.88;43.90;99683.72;1733810;82;21318;-66
2021/04/20 10:38:57;;;;;;;14.25;11.05;;;;;;;18.94;43.87;99681.19;1720019;83;21184;-52
2021/04/20 10:41:33;;;;;;;12.90;9.95;;;;;;;19.06;44.48;99683.14;1719853;83;21538;-66
2021/04/20 10:44:01;;;;;;;12.03;9.95;;;;;;;19.30;44.16;99666.16;1701719;82;21157;-65
2021/04/20 10:46:29;;;;;;;11.75;9.60;;;;;;;19.57;43.53;99669.45;1745623;82;21163;-66
2021/04/20 10:48:58;;;;;;;13.22;11.22;;;;;;;19.83;42.78;99663.45;1747371;82;21567;-54
2021/04/20 10:51:36;;;;;;;9.15;7.55;;;;;;;20.16;42.68;99667.64;1747259;82;21159;-65
2021/04/20 10:54:06;;;;;;;11.73;8.73;;;;;;;20.52;41.95;99656.02;1744065;82;21176;-53
2021/04/20 10:56:34;;;;;;;8.45;6.47;;;;;;;20.95;41.09;99659.39;1747650;82;21126;-54
2021/04/20 10:59:08;;;;;;;7.25;5.97;;;;;;;21.54;41.51;99658.55;1749301;82;21169;-53
2021/04/20 11:01:38;;;;;;;7.60;6.00;;;;;;;22.12;40.48;99648.72;1750140;82;21165;-66
2021/04/20 11:04:07;;;;;;;8.45;6.42;;;;;;;22.66;38.76;99649.31;1696616;82;21162;-54
2021/04/20 11:07:26;;;;;;;6.30;5.37;;;;;;;23.03;38.07;99651.39;1742511;82;21131;-66
2021/04/20 11:10:08;;;;;;;7.92;5.72;;;;;;;23.16;36.69;99646.43;1738238;82;21147;-64
2021/04/20 11:12:48;;;;;;;7.45;5.20;;;;;;;23.50;35.67;99650.55;1747432;82;21158;-54
2021/04/20 11:15:29;;;;;;;8.87;5.33;;;;;;;23.73;35.39;99651.42;1746896;82;21159;-54
2021/04/20 11:18:12;;;;;;;7.03;4.60;;;;;;;23.72;33.46;99646.19;1747233;82;21316;-54
2021/04/20 11:20:47;;;;;;;6.12;4.37;;;;;;;23.47;31.77;99645.42;1747176;82;21645;-54
2021/04/20 11:23:20;;;;;;;9.98;7.03;;;;;;;23.31;32.91;99647.98;1740044;82;21167;-66
2021/04/20 11:26:02;;;;;;;9.88;7.33;;;;;;;23.29;33.70;99654.42;1751614;81;21115;-66
2021/04/20 11:28:45;;;;;;;5.95;5.12;;;;;;;23.28;34.03;99648.68;1712169;84;21257;-66
2021/04/20 11:31:25;;;;;;;5.20;4.00;;;;;;;23.30;33.19;99654.79;1748148;82;21148;-55
2021/04/20 11:34:19;;;;;;;4.53;3.90;;;;;;;23.23;33.47;99649.52;1712113;84;21714;-54
2021/04/20 11:37:04;;;;;;;4.90;4.33;;;;;;;23.18;33.16;99655.22;1762719;81;21585;-67
2021/04/20 11:39:44;;;;;;;4.53;3.90;;;;;;;23.09;33.12;99663.50;1778981;81;21586;-54
2021/04/20 11:44:59;;;;;;;4.12;3.50;;;;;;;23.67;33.33;99645.70;1817932;77;22206;-53
2021/04/20 11:47:27;;;;;;;4.97;3.83;;;;;;;24.25;31.90;99648.75;1780901;80;21106;-66
2021/04/20 11:49:58;;;;;;;7.62;6.58;;;;;;;24.56;30.51;99644.37;1751987;81;21154;-65
2021/04/20 11:52:30;;;;;;;5.37;4.28;;;;;;;24.68;30.11;99644.34;1746064;82;21666;-66
2021/04/20 11:55:02;;;;;;;4.95;3.47;;;;;;;24.37;30.19;99647.73;1734025;82;21195;-66
2021/04/20 11:57:30;;;;;;;4.30;3.52;;;;;;;24.34;29.20;99647.97;1720576;82;21278;-55
2021/04/20 11:59:57;;;;;;;5.22;3.52;;;;;;;24.28;29.92;99647.16;1738513;82;21178;-54
2021/04/20 12:02:29;;;;;;;7.42;3.50;;;;;;;24.55;29.94;99645.86;1695083;84;21174;-55